sensor_id;sensor_type;location;lat;lon;timestamp;P1;durP1;ratioP1;P2;durP2;ratioP2
51214;SDS011;63849;47.546;19.254;2024-02-26T00:00:34;30.38;;;22.55;;
51214;SDS011;63849;47.546;19.254;2024-02-26T00:03:00;26.75;;;21.95;;
51214;SDS011;63849;47.546;19.254;2024-02-26T00:05:26;27.38;;;20.92;;
51214;SDS011;63849;47.546;19.254;2024-02-26T00:07:52;30.50;;;21.80;;
51214;SDS011;63849;47.546;19.254;2024-02-26T00:10:17;28.45;;;21.85;;
51214;SDS011;63849;47.546;19.254;2024-02-26T00:12:43;29.75;;;21.88;;
51214;SDS011;63849;47.546;19.254;2024-02-26T00:15:09;30.38;;;23.02;;
51214;SDS011;63849;47.546;19.254;2024-02-26T00:17:36;29.58;;;23.00;;
51214;SDS011;63849;47.546;19.254;2024-02-26T00:20:02;29.10;;;22.30;;
51214;SDS011;63849;47.546;19.254;2024-02-26T00:22:34;27.45;;;22.20;;
51214;SDS011;63849;47.546;19.254;2024-02-26T00:25:00;28.05;;;22.75;;
51214;SDS011;63849;47.546;19.254;2024-02-26T00:27:26;28.35;;;22.65;;
51214;SDS011;63849;47.546;19.254;2024-02-26T00:29:52;26.98;;;22.10;;
51214;SDS011;63849;47.546;19.254;2024-02-26T00:32:17;27.05;;;21.95;;
51214;SDS011;63849;47.546;19.254;2024-02-26T00:34:43;29.45;;;22.05;;
51214;SDS011;63849;47.546;19.254;2024-02-26T00:37:09;29.10;;;22.92;;
51214;SDS011;63849;47.546;19.254;2024-02-26T00:39:34;30.25;;;22.90;;
51214;SDS011;63849;47.546;19.254;2024-02-26T00:42:00;28.52;;;22.40;;
51214;SDS011;63849;47.546;19.254;2024-02-26T00:44:26;30.38;;;22.73;;
51214;SDS011;63849;47.546;19.254;2024-02-26T00:46:51;29.13;;;22.05;;
51214;SDS011;63849;47.546;19.254;2024-02-26T00:49:17;27.40;;;21.75;;
51214;SDS011;63849;47.546;19.254;2024-02-26T00:51:42;28.30;;;21.58;;
51214;SDS011;63849;47.546;19.254;2024-02-26T00:54:08;25.48;;;20.90;;
51214;SDS011;63849;47.546;19.254;2024-02-26T00:56:34;24.75;;;20.42;;
51214;SDS011;63849;47.546;19.254;2024-02-26T00:58:59;26.35;;;21.35;;
51214;SDS011;63849;47.546;19.254;2024-02-26T01:01:25;27.58;;;22.30;;
51214;SDS011;63849;47.546;19.254;2024-02-26T01:03:51;25.85;;;21.17;;
51214;SDS011;63849;47.546;19.254;2024-02-26T01:06:16;26.90;;;21.38;;
51214;SDS011;63849;47.546;19.254;2024-02-26T01:08:42;27.40;;;21.55;;
51214;SDS011;63849;47.546;19.254;2024-02-26T01:11:08;25.58;;;20.60;;
51214;SDS011;63849;47.546;19.254;2024-02-26T01:13:33;28.35;;;22.05;;
51214;SDS011;63849;47.546;19.254;2024-02-26T01:15:59;29.55;;;20.83;;
51214;SDS011;63849;47.546;19.254;2024-02-26T01:18:26;28.58;;;22.08;;
51214;SDS011;63849;47.546;19.254;2024-02-26T01:20:52;25.85;;;20.65;;
51214;SDS011;63849;47.546;19.254;2024-02-26T01:23:19;28.13;;;21.15;;
51214;SDS011;63849;47.546;19.254;2024-02-26T01:25:45;25.25;;;20.55;;
51214;SDS011;63849;47.546;19.254;2024-02-26T01:28:11;28.30;;;21.38;;
51214;SDS011;63849;47.546;19.254;2024-02-26T01:30:37;25.65;;;20.35;;
51214;SDS011;63849;47.546;19.254;2024-02-26T01:33:02;23.70;;;19.17;;
51214;SDS011;63849;47.546;19.254;2024-02-26T01:35:28;24.80;;;18.92;;
51214;SDS011;63849;47.546;19.254;2024-02-26T01:37:55;24.88;;;19.80;;
51214;SDS011;63849;47.546;19.254;2024-02-26T01:40:20;25.70;;;20.08;;
51214;SDS011;63849;47.546;19.254;2024-02-26T01:42:46;24.83;;;20.05;;
51214;SDS011;63849;47.546;19.254;2024-02-26T01:45:16;25.08;;;19.83;;
51214;SDS011;63849;47.546;19.254;2024-02-26T01:47:51;25.38;;;20.85;;
51214;SDS011;63849;47.546;19.254;2024-02-26T01:50:17;26.70;;;19.98;;
51214;SDS011;63849;47.546;19.254;2024-02-26T01:52:44;24.80;;;19.63;;
51214;SDS011;63849;47.546;19.254;2024-02-26T01:55:12;22.65;;;18.90;;
51214;SDS011;63849;47.546;19.254;2024-02-26T01:57:39;24.60;;;19.90;;
51214;SDS011;63849;47.546;19.254;2024-02-26T02:00:07;26.08;;;19.70;;
51214;SDS011;63849;47.546;19.254;2024-02-26T02:02:33;23.77;;;19.23;;
51214;SDS011;63849;47.546;19.254;2024-02-26T02:04:59;22.45;;;18.00;;
51214;SDS011;63849;47.546;19.254;2024-02-26T02:07:25;25.25;;;19.00;;
51214;SDS011;63849;47.546;19.254;2024-02-26T02:09:51;25.67;;;18.27;;
51214;SDS011;63849;47.546;19.254;2024-02-26T02:12:18;23.70;;;18.10;;
51214;SDS011;63849;47.546;19.254;2024-02-26T02:14:44;24.05;;;18.58;;
51214;SDS011;63849;47.546;19.254;2024-02-26T02:17:10;22.20;;;17.33;;
51214;SDS011;63849;47.546;19.254;2024-02-26T02:19:35;21.20;;;17.27;;
51214;SDS011;63849;47.546;19.254;2024-02-26T02:22:01;22.05;;;16.70;;
51214;SDS011;63849;47.546;19.254;2024-02-26T02:24:27;21.67;;;16.42;;
51214;SDS011;63849;47.546;19.254;2024-02-26T02:26:52;20.35;;;15.77;;
51214;SDS011;63849;47.546;19.254;2024-02-26T02:29:18;18.98;;;14.70;;
51214;SDS011;63849;47.546;19.254;2024-02-26T02:31:44;20.25;;;14.82;;
51214;SDS011;63849;47.546;19.254;2024-02-26T02:34:10;19.17;;;14.95;;
51214;SDS011;63849;47.546;19.254;2024-02-26T02:36:47;19.65;;;15.77;;
51214;SDS011;63849;47.546;19.254;2024-02-26T02:39:15;20.63;;;15.15;;
51214;SDS011;63849;47.546;19.254;2024-02-26T02:41:40;17.35;;;14.20;;
51214;SDS011;63849;47.546;19.254;2024-02-26T02:44:06;18.15;;;14.02;;
51214;SDS011;63849;47.546;19.254;2024-02-26T02:46:32;20.70;;;14.65;;
51214;SDS011;63849;47.546;19.254;2024-02-26T02:48:58;19.05;;;13.93;;
51214;SDS011;63849;47.546;19.254;2024-02-26T02:51:24;19.85;;;14.52;;
51214;SDS011;63849;47.546;19.254;2024-02-26T02:53:49;17.30;;;14.23;;
51214;SDS011;63849;47.546;19.254;2024-02-26T02:56:15;17.83;;;14.32;;
51214;SDS011;63849;47.546;19.254;2024-02-26T02:58:41;17.90;;;14.10;;
51214;SDS011;63849;47.546;19.254;2024-02-26T03:01:06;18.70;;;14.10;;
51214;SDS011;63849;47.546;19.254;2024-02-26T03:03:32;17.83;;;13.77;;
51214;SDS011;63849;47.546;19.254;2024-02-26T03:05:58;19.15;;;15.13;;
51214;SDS011;63849;47.546;19.254;2024-02-26T03:08:24;21.95;;;16.63;;
51214;SDS011;63849;47.546;19.254;2024-02-26T03:10:51;20.70;;;16.60;;
51214;SDS011;63849;47.546;19.254;2024-02-26T03:13:17;26.13;;;19.13;;
51214;SDS011;63849;47.546;19.254;2024-02-26T03:15:42;24.52;;;18.65;;
51214;SDS011;63849;47.546;19.254;2024-02-26T03:18:08;23.42;;;18.20;;
51214;SDS011;63849;47.546;19.254;2024-02-26T03:20:34;24.45;;;17.90;;
51214;SDS011;63849;47.546;19.254;2024-02-26T03:22:59;25.58;;;18.83;;
51214;SDS011;63849;47.546;19.254;2024-02-26T03:25:25;27.98;;;19.83;;
51214;SDS011;63849;47.546;19.254;2024-02-26T03:27:50;25.08;;;18.92;;
51214;SDS011;63849;47.546;19.254;2024-02-26T03:30:16;26.35;;;19.15;;
51214;SDS011;63849;47.546;19.254;2024-02-26T03:32:42;28.13;;;20.40;;
51214;SDS011;63849;47.546;19.254;2024-02-26T03:35:07;31.27;;;22.48;;
51214;SDS011;63849;47.546;19.254;2024-02-26T03:37:33;31.25;;;22.00;;
51214;SDS011;63849;47.546;19.254;2024-02-26T03:39:59;30.63;;;21.63;;
51214;SDS011;63849;47.546;19.254;2024-02-26T03:42:26;31.80;;;21.73;;
51214;SDS011;63849;47.546;19.254;2024-02-26T03:44:52;33.13;;;22.17;;
51214;SDS011;63849;47.546;19.254;2024-02-26T03:47:17;32.58;;;23.42;;
51214;SDS011;63849;47.546;19.254;2024-02-26T03:49:43;36.15;;;23.67;;
51214;SDS011;63849;47.546;19.254;2024-02-26T03:52:09;34.50;;;23.67;;
51214;SDS011;63849;47.546;19.254;2024-02-26T03:54:35;33.08;;;22.90;;
51214;SDS011;63849;47.546;19.254;2024-02-26T03:57:01;35.08;;;24.27;;
51214;SDS011;63849;47.546;19.254;2024-02-26T03:59:26;37.60;;;25.38;;
51214;SDS011;63849;47.546;19.254;2024-02-26T04:01:52;40.30;;;25.35;;
51214;SDS011;63849;47.546;19.254;2024-02-26T04:04:18;40.13;;;26.55;;
51214;SDS011;63849;47.546;19.254;2024-02-26T04:06:46;40.97;;;26.73;;
51214;SDS011;63849;47.546;19.254;2024-02-26T04:09:15;39.95;;;26.17;;
51214;SDS011;63849;47.546;19.254;2024-02-26T04:11:41;41.03;;;26.63;;
51214;SDS011;63849;47.546;19.254;2024-02-26T04:14:08;38.88;;;25.50;;
51214;SDS011;63849;47.546;19.254;2024-02-26T04:16:34;35.15;;;24.50;;
51214;SDS011;63849;47.546;19.254;2024-02-26T04:19:03;38.30;;;25.50;;
51214;SDS011;63849;47.546;19.254;2024-02-26T04:21:28;38.08;;;25.77;;
51214;SDS011;63849;47.546;19.254;2024-02-26T04:23:54;35.58;;;25.33;;
51214;SDS011;63849;47.546;19.254;2024-02-26T04:26:26;35.15;;;24.83;;
51214;SDS011;63849;47.546;19.254;2024-02-26T04:28:51;37.33;;;25.65;;
51214;SDS011;63849;47.546;19.254;2024-02-26T04:31:18;35.30;;;25.50;;
51214;SDS011;63849;47.546;19.254;2024-02-26T04:33:43;35.78;;;25.95;;
51214;SDS011;63849;47.546;19.254;2024-02-26T04:36:15;34.05;;;25.80;;
51214;SDS011;63849;47.546;19.254;2024-02-26T04:38:42;39.60;;;27.90;;
51214;SDS011;63849;47.546;19.254;2024-02-26T04:41:11;41.20;;;27.90;;
51214;SDS011;63849;47.546;19.254;2024-02-26T04:43:37;44.08;;;29.83;;
51214;SDS011;63849;47.546;19.254;2024-02-26T04:46:09;41.03;;;28.98;;
51214;SDS011;63849;47.546;19.254;2024-02-26T04:48:35;37.63;;;26.17;;
51214;SDS011;63849;47.546;19.254;2024-02-26T04:51:02;39.13;;;26.83;;
51214;SDS011;63849;47.546;19.254;2024-02-26T04:53:28;36.65;;;25.83;;
51214;SDS011;63849;47.546;19.254;2024-02-26T04:55:54;35.45;;;25.48;;
51214;SDS011;63849;47.546;19.254;2024-02-26T04:58:19;34.17;;;23.02;;
51214;SDS011;63849;47.546;19.254;2024-02-26T05:00:45;36.25;;;24.10;;
51214;SDS011;63849;47.546;19.254;2024-02-26T05:03:11;34.63;;;23.25;;
51214;SDS011;63849;47.546;19.254;2024-02-26T05:05:41;29.58;;;20.88;;
51214;SDS011;63849;47.546;19.254;2024-02-26T05:08:07;33.88;;;23.83;;
51214;SDS011;63849;47.546;19.254;2024-02-26T05:10:33;31.90;;;22.50;;
51214;SDS011;63849;47.546;19.254;2024-02-26T05:13:04;33.08;;;22.75;;
51214;SDS011;63849;47.546;19.254;2024-02-26T05:15:30;27.73;;;20.80;;
51214;SDS011;63849;47.546;19.254;2024-02-26T05:17:55;29.35;;;21.02;;
51214;SDS011;63849;47.546;19.254;2024-02-26T05:20:21;27.42;;;20.20;;
51214;SDS011;63849;47.546;19.254;2024-02-26T05:22:47;29.10;;;20.15;;
51214;SDS011;63849;47.546;19.254;2024-02-26T05:25:14;29.45;;;20.73;;
51214;SDS011;63849;47.546;19.254;2024-02-26T05:27:41;28.85;;;20.33;;
51214;SDS011;63849;47.546;19.254;2024-02-26T05:30:07;30.55;;;21.02;;
51214;SDS011;63849;47.546;19.254;2024-02-26T05:32:33;27.98;;;21.73;;
51214;SDS011;63849;47.546;19.254;2024-02-26T05:34:59;32.58;;;21.55;;
51214;SDS011;63849;47.546;19.254;2024-02-26T05:37:24;28.35;;;20.30;;
51214;SDS011;63849;47.546;19.254;2024-02-26T05:39:50;27.13;;;19.67;;
51214;SDS011;63849;47.546;19.254;2024-02-26T05:42:15;29.30;;;20.58;;
51214;SDS011;63849;47.546;19.254;2024-02-26T05:44:41;27.23;;;20.88;;
51214;SDS011;63849;47.546;19.254;2024-02-26T05:47:07;25.33;;;19.98;;
51214;SDS011;63849;47.546;19.254;2024-02-26T05:49:32;26.70;;;20.27;;
51214;SDS011;63849;47.546;19.254;2024-02-26T05:51:58;26.65;;;20.52;;
51214;SDS011;63849;47.546;19.254;2024-02-26T05:54:24;25.95;;;20.45;;
51214;SDS011;63849;47.546;19.254;2024-02-26T05:56:50;28.77;;;20.90;;
51214;SDS011;63849;47.546;19.254;2024-02-26T05:59:15;32.28;;;23.63;;
51214;SDS011;63849;47.546;19.254;2024-02-26T06:01:41;30.73;;;22.83;;
51214;SDS011;63849;47.546;19.254;2024-02-26T06:04:07;33.40;;;24.25;;
51214;SDS011;63849;47.546;19.254;2024-02-26T06:06:32;30.23;;;23.13;;
51214;SDS011;63849;47.546;19.254;2024-02-26T06:08:58;33.80;;;25.52;;
51214;SDS011;63849;47.546;19.254;2024-02-26T06:11:24;40.67;;;29.00;;
51214;SDS011;63849;47.546;19.254;2024-02-26T06:13:49;42.35;;;30.92;;
51214;SDS011;63849;47.546;19.254;2024-02-26T06:16:15;42.90;;;31.10;;
51214;SDS011;63849;47.546;19.254;2024-02-26T06:18:41;44.05;;;32.17;;
51214;SDS011;63849;47.546;19.254;2024-02-26T06:21:10;43.75;;;32.13;;
51214;SDS011;63849;47.546;19.254;2024-02-26T06:23:36;46.80;;;34.17;;
51214;SDS011;63849;47.546;19.254;2024-02-26T06:26:02;46.38;;;34.03;;
51214;SDS011;63849;47.546;19.254;2024-02-26T06:28:28;50.55;;;35.72;;
51214;SDS011;63849;47.546;19.254;2024-02-26T06:30:57;49.17;;;36.75;;
51214;SDS011;63849;47.546;19.254;2024-02-26T06:33:23;52.17;;;38.17;;
51214;SDS011;63849;47.546;19.254;2024-02-26T06:35:48;55.22;;;39.13;;
51214;SDS011;63849;47.546;19.254;2024-02-26T06:38:14;57.35;;;41.55;;
51214;SDS011;63849;47.546;19.254;2024-02-26T06:40:40;58.65;;;41.75;;
51214;SDS011;63849;47.546;19.254;2024-02-26T06:43:06;54.47;;;39.28;;
51214;SDS011;63849;47.546;19.254;2024-02-26T06:45:31;58.33;;;42.72;;
51214;SDS011;63849;47.546;19.254;2024-02-26T06:47:57;64.63;;;44.38;;
51214;SDS011;63849;47.546;19.254;2024-02-26T06:50:23;68.38;;;48.35;;
51214;SDS011;63849;47.546;19.254;2024-02-26T06:52:49;64.93;;;45.33;;
51214;SDS011;63849;47.546;19.254;2024-02-26T06:55:14;50.60;;;39.40;;
51214;SDS011;63849;47.546;19.254;2024-02-26T06:57:40;56.70;;;42.85;;
51214;SDS011;63849;47.546;19.254;2024-02-26T07:00:06;57.67;;;41.05;;
51214;SDS011;63849;47.546;19.254;2024-02-26T07:02:32;55.70;;;42.08;;
51214;SDS011;63849;47.546;19.254;2024-02-26T07:04:57;55.38;;;39.47;;
51214;SDS011;63849;47.546;19.254;2024-02-26T07:07:23;53.13;;;39.38;;
51214;SDS011;63849;47.546;19.254;2024-02-26T07:09:49;48.50;;;38.35;;
51214;SDS011;63849;47.546;19.254;2024-02-26T07:12:15;52.10;;;38.95;;
51214;SDS011;63849;47.546;19.254;2024-02-26T07:14:41;52.03;;;40.30;;
51214;SDS011;63849;47.546;19.254;2024-02-26T07:17:07;51.13;;;39.97;;
51214;SDS011;63849;47.546;19.254;2024-02-26T07:19:33;53.88;;;41.13;;
51214;SDS011;63849;47.546;19.254;2024-02-26T07:21:59;52.10;;;39.42;;
51214;SDS011;63849;47.546;19.254;2024-02-26T07:24:26;49.22;;;37.75;;
51214;SDS011;63849;47.546;19.254;2024-02-26T07:26:53;52.28;;;39.40;;
51214;SDS011;63849;47.546;19.254;2024-02-26T07:29:21;51.00;;;39.17;;
51214;SDS011;63849;47.546;19.254;2024-02-26T07:31:47;55.78;;;41.30;;
51214;SDS011;63849;47.546;19.254;2024-02-26T07:34:13;52.75;;;39.35;;
51214;SDS011;63849;47.546;19.254;2024-02-26T07:36:39;53.88;;;40.70;;
51214;SDS011;63849;47.546;19.254;2024-02-26T07:39:05;54.20;;;40.00;;
51214;SDS011;63849;47.546;19.254;2024-02-26T07:41:30;55.38;;;40.15;;
51214;SDS011;63849;47.546;19.254;2024-02-26T07:43:56;53.50;;;39.35;;
51214;SDS011;63849;47.546;19.254;2024-02-26T07:46:22;56.38;;;41.80;;
51214;SDS011;63849;47.546;19.254;2024-02-26T07:48:47;52.95;;;39.33;;
51214;SDS011;63849;47.546;19.254;2024-02-26T07:51:13;50.83;;;39.90;;
51214;SDS011;63849;47.546;19.254;2024-02-26T07:53:39;51.08;;;40.65;;
51214;SDS011;63849;47.546;19.254;2024-02-26T07:56:05;49.20;;;38.88;;
51214;SDS011;63849;47.546;19.254;2024-02-26T07:58:34;53.92;;;39.85;;
51214;SDS011;63849;47.546;19.254;2024-02-26T08:00:59;52.67;;;39.10;;
51214;SDS011;63849;47.546;19.254;2024-02-26T08:03:25;49.63;;;36.22;;
51214;SDS011;63849;47.546;19.254;2024-02-26T08:05:51;49.10;;;37.97;;
51214;SDS011;63849;47.546;19.254;2024-02-26T08:08:17;48.92;;;37.55;;
51214;SDS011;63849;47.546;19.254;2024-02-26T08:10:43;48.95;;;37.00;;
51214;SDS011;63849;47.546;19.254;2024-02-26T08:13:08;48.33;;;38.88;;
51214;SDS011;63849;47.546;19.254;2024-02-26T08:15:37;47.10;;;37.10;;
51214;SDS011;63849;47.546;19.254;2024-02-26T08:18:03;48.80;;;39.60;;
51214;SDS011;63849;47.546;19.254;2024-02-26T08:20:29;50.35;;;38.42;;
51214;SDS011;63849;47.546;19.254;2024-02-26T08:22:56;46.83;;;38.75;;
51214;SDS011;63849;47.546;19.254;2024-02-26T08:25:22;50.38;;;40.58;;
51214;SDS011;63849;47.546;19.254;2024-02-26T08:27:48;48.17;;;39.08;;
51214;SDS011;63849;47.546;19.254;2024-02-26T08:30:14;51.83;;;42.63;;
51214;SDS011;63849;47.546;19.254;2024-02-26T08:32:45;44.67;;;38.10;;
51214;SDS011;63849;47.546;19.254;2024-02-26T08:35:12;48.78;;;40.25;;
51214;SDS011;63849;47.546;19.254;2024-02-26T08:37:38;48.83;;;40.95;;
51214;SDS011;63849;47.546;19.254;2024-02-26T08:40:04;53.83;;;40.55;;
51214;SDS011;63849;47.546;19.254;2024-02-26T08:42:31;51.28;;;43.00;;
51214;SDS011;63849;47.546;19.254;2024-02-26T08:44:56;56.45;;;42.78;;
51214;SDS011;63849;47.546;19.254;2024-02-26T08:47:26;53.35;;;44.17;;
51214;SDS011;63849;47.546;19.254;2024-02-26T08:49:53;53.30;;;44.15;;
51214;SDS011;63849;47.546;19.254;2024-02-26T08:52:19;50.00;;;41.47;;
51214;SDS011;63849;47.546;19.254;2024-02-26T08:54:44;50.90;;;42.15;;
51214;SDS011;63849;47.546;19.254;2024-02-26T08:57:10;50.83;;;43.00;;
51214;SDS011;63849;47.546;19.254;2024-02-26T08:59:35;54.42;;;44.63;;
51214;SDS011;63849;47.546;19.254;2024-02-26T09:02:01;54.97;;;44.80;;
51214;SDS011;63849;47.546;19.254;2024-02-26T09:04:27;55.63;;;45.80;;
51214;SDS011;63849;47.546;19.254;2024-02-26T09:06:53;54.25;;;46.40;;
51214;SDS011;63849;47.546;19.254;2024-02-26T09:09:19;55.75;;;44.78;;
51214;SDS011;63849;47.546;19.254;2024-02-26T09:11:47;53.20;;;44.65;;
51214;SDS011;63849;47.546;19.254;2024-02-26T09:14:13;50.60;;;44.92;;
51214;SDS011;63849;47.546;19.254;2024-02-26T09:16:39;53.03;;;46.35;;
51214;SDS011;63849;47.546;19.254;2024-02-26T09:19:05;53.95;;;47.22;;
51214;SDS011;63849;47.546;19.254;2024-02-26T09:21:30;58.75;;;48.15;;
51214;SDS011;63849;47.546;19.254;2024-02-26T09:23:56;57.08;;;48.50;;
51214;SDS011;63849;47.546;19.254;2024-02-26T09:26:21;53.45;;;46.70;;
51214;SDS011;63849;47.546;19.254;2024-02-26T09:28:47;57.03;;;50.65;;
51214;SDS011;63849;47.546;19.254;2024-02-26T09:31:14;56.42;;;47.88;;
51214;SDS011;63849;47.546;19.254;2024-02-26T09:33:42;54.92;;;47.25;;
51214;SDS011;63849;47.546;19.254;2024-02-26T09:36:08;55.30;;;49.15;;
51214;SDS011;63849;47.546;19.254;2024-02-26T09:38:36;58.22;;;48.78;;
51214;SDS011;63849;47.546;19.254;2024-02-26T09:41:03;55.75;;;47.20;;
51214;SDS011;63849;47.546;19.254;2024-02-26T09:43:34;56.03;;;48.30;;
51214;SDS011;63849;47.546;19.254;2024-02-26T09:46:04;52.58;;;46.92;;
51214;SDS011;63849;47.546;19.254;2024-02-26T09:48:31;52.55;;;46.67;;
51214;SDS011;63849;47.546;19.254;2024-02-26T09:50:58;51.42;;;45.78;;
51214;SDS011;63849;47.546;19.254;2024-02-26T09:53:26;54.03;;;47.15;;
51214;SDS011;63849;47.546;19.254;2024-02-26T09:55:56;50.05;;;44.75;;
51214;SDS011;63849;47.546;19.254;2024-02-26T09:58:23;47.30;;;42.10;;
51214;SDS011;63849;47.546;19.254;2024-02-26T10:00:53;47.30;;;42.13;;
51214;SDS011;63849;47.546;19.254;2024-02-26T10:03:25;50.38;;;43.97;;
51214;SDS011;63849;47.546;19.254;2024-02-26T10:05:59;48.85;;;42.85;;
51214;SDS011;63849;47.546;19.254;2024-02-26T10:08:27;47.47;;;42.47;;
51214;SDS011;63849;47.546;19.254;2024-02-26T10:10:54;47.67;;;42.53;;
51214;SDS011;63849;47.546;19.254;2024-02-26T10:13:21;45.53;;;40.83;;
51214;SDS011;63849;47.546;19.254;2024-02-26T10:15:48;46.00;;;39.15;;
51214;SDS011;63849;47.546;19.254;2024-02-26T10:18:13;43.17;;;38.65;;
51214;SDS011;63849;47.546;19.254;2024-02-26T10:20:39;43.95;;;39.33;;
51214;SDS011;63849;47.546;19.254;2024-02-26T10:23:05;43.58;;;38.97;;
51214;SDS011;63849;47.546;19.254;2024-02-26T10:25:31;46.13;;;41.17;;
51214;SDS011;63849;47.546;19.254;2024-02-26T10:28:00;45.47;;;40.80;;
51214;SDS011;63849;47.546;19.254;2024-02-26T10:30:29;42.78;;;38.28;;
51214;SDS011;63849;47.546;19.254;2024-02-26T10:32:55;43.17;;;38.22;;
51214;SDS011;63849;47.546;19.254;2024-02-26T10:35:22;43.15;;;38.28;;
51214;SDS011;63849;47.546;19.254;2024-02-26T10:37:51;43.50;;;38.78;;
51214;SDS011;63849;47.546;19.254;2024-02-26T10:40:17;44.20;;;39.40;;
51214;SDS011;63849;47.546;19.254;2024-02-26T10:42:43;46.80;;;41.00;;
51214;SDS011;63849;47.546;19.254;2024-02-26T10:45:10;45.03;;;40.15;;
51214;SDS011;63849;47.546;19.254;2024-02-26T10:47:36;46.47;;;39.00;;
51214;SDS011;63849;47.546;19.254;2024-02-26T10:50:02;41.95;;;37.55;;
51214;SDS011;63849;47.546;19.254;2024-02-26T10:52:33;42.60;;;37.75;;
51214;SDS011;63849;47.546;19.254;2024-02-26T10:55:04;36.63;;;32.63;;
51214;SDS011;63849;47.546;19.254;2024-02-26T11:00:05;37.53;;;33.50;;
51214;SDS011;63849;47.546;19.254;2024-02-26T11:02:34;36.80;;;32.83;;
51214;SDS011;63849;47.546;19.254;2024-02-26T11:05:04;33.47;;;29.98;;
51214;SDS011;63849;47.546;19.254;2024-02-26T11:07:31;36.17;;;31.92;;
51214;SDS011;63849;47.546;19.254;2024-02-26T11:09:59;41.63;;;35.13;;
51214;SDS011;63849;47.546;19.254;2024-02-26T11:12:25;39.88;;;35.53;;
51214;SDS011;63849;47.546;19.254;2024-02-26T11:14:54;36.05;;;31.52;;
51214;SDS011;63849;47.546;19.254;2024-02-26T11:17:22;32.90;;;29.45;;
51214;SDS011;63849;47.546;19.254;2024-02-26T11:19:51;33.80;;;28.90;;
51214;SDS011;63849;47.546;19.254;2024-02-26T11:22:20;31.08;;;27.73;;
51214;SDS011;63849;47.546;19.254;2024-02-26T11:24:47;32.72;;;28.77;;
51214;SDS011;63849;47.546;19.254;2024-02-26T11:27:14;30.13;;;26.92;;
51214;SDS011;63849;47.546;19.254;2024-02-26T11:29:44;29.67;;;26.38;;
51214;SDS011;63849;47.546;19.254;2024-02-26T11:32:13;25.85;;;23.25;;
51214;SDS011;63849;47.546;19.254;2024-02-26T11:34:39;27.35;;;24.52;;
51214;SDS011;63849;47.546;19.254;2024-02-26T11:37:10;27.63;;;24.73;;
51214;SDS011;63849;47.546;19.254;2024-02-26T11:39:43;27.38;;;24.58;;
51214;SDS011;63849;47.546;19.254;2024-02-26T11:42:13;25.90;;;23.23;;
51214;SDS011;63849;47.546;19.254;2024-02-26T11:44:39;25.75;;;22.58;;
51214;SDS011;63849;47.546;19.254;2024-02-26T11:47:10;26.65;;;22.98;;
51214;SDS011;63849;47.546;19.254;2024-02-26T11:49:46;24.52;;;22.13;;
51214;SDS011;63849;47.546;19.254;2024-02-26T11:52:13;25.33;;;22.70;;
51214;SDS011;63849;47.546;19.254;2024-02-26T11:54:57;23.60;;;21.10;;
51214;SDS011;63849;47.546;19.254;2024-02-26T11:57:30;35.53;;;31.63;;
51214;SDS011;63849;47.546;19.254;2024-02-26T12:05:20;24.38;;;21.95;;
51214;SDS011;63849;47.546;19.254;2024-02-26T12:08:02;26.58;;;22.83;;
51214;SDS011;63849;47.546;19.254;2024-02-26T12:10:31;22.80;;;19.77;;
51214;SDS011;63849;47.546;19.254;2024-02-26T12:13:13;22.05;;;18.85;;
51214;SDS011;63849;47.546;19.254;2024-02-26T12:15:43;23.02;;;20.63;;
51214;SDS011;63849;47.546;19.254;2024-02-26T12:18:12;21.52;;;19.30;;
51214;SDS011;63849;47.546;19.254;2024-02-26T12:20:42;22.35;;;19.70;;
51214;SDS011;63849;47.546;19.254;2024-02-26T12:23:09;26.05;;;21.77;;
51214;SDS011;63849;47.546;19.254;2024-02-26T12:25:40;22.20;;;19.73;;
51214;SDS011;63849;47.546;19.254;2024-02-26T12:28:06;24.20;;;21.33;;
51214;SDS011;63849;47.546;19.254;2024-02-26T12:30:32;21.45;;;19.20;;
51214;SDS011;63849;47.546;19.254;2024-02-26T12:32:59;24.40;;;21.20;;
51214;SDS011;63849;47.546;19.254;2024-02-26T12:35:26;29.13;;;20.83;;
51214;SDS011;63849;47.546;19.254;2024-02-26T12:37:55;23.98;;;19.42;;
51214;SDS011;63849;47.546;19.254;2024-02-26T12:40:21;21.77;;;19.45;;
51214;SDS011;63849;47.546;19.254;2024-02-26T12:42:47;19.65;;;17.63;;
51214;SDS011;63849;47.546;19.254;2024-02-26T12:45:13;17.85;;;16.02;;
51214;SDS011;63849;47.546;19.254;2024-02-26T12:47:44;19.88;;;17.80;;
51214;SDS011;63849;47.546;19.254;2024-02-26T12:50:11;16.02;;;14.43;;
51214;SDS011;63849;47.546;19.254;2024-02-26T12:52:39;16.90;;;14.82;;
51214;SDS011;63849;47.546;19.254;2024-02-26T12:55:06;14.73;;;13.25;;
51214;SDS011;63849;47.546;19.254;2024-02-26T12:57:34;15.45;;;13.85;;
51214;SDS011;63849;47.546;19.254;2024-02-26T13:00:02;16.10;;;14.55;;
51214;SDS011;63849;47.546;19.254;2024-02-26T13:02:30;15.35;;;13.60;;
51214;SDS011;63849;47.546;19.254;2024-02-26T13:04:56;15.75;;;14.20;;
51214;SDS011;63849;47.546;19.254;2024-02-26T13:07:23;15.40;;;14.00;;
51214;SDS011;63849;47.546;19.254;2024-02-26T13:09:49;17.25;;;15.40;;
51214;SDS011;63849;47.546;19.254;2024-02-26T13:12:15;15.25;;;13.70;;
51214;SDS011;63849;47.546;19.254;2024-02-26T13:14:41;16.33;;;14.88;;
51214;SDS011;63849;47.546;19.254;2024-02-26T13:17:07;17.50;;;15.70;;
51214;SDS011;63849;47.546;19.254;2024-02-26T13:19:34;16.45;;;14.85;;
51214;SDS011;63849;47.546;19.254;2024-02-26T13:22:03;17.08;;;15.40;;
51214;SDS011;63849;47.546;19.254;2024-02-26T13:24:33;14.77;;;13.35;;
51214;SDS011;63849;47.546;19.254;2024-02-26T13:26:59;16.10;;;14.48;;
51214;SDS011;63849;47.546;19.254;2024-02-26T13:29:25;15.05;;;13.75;;
51214;SDS011;63849;47.546;19.254;2024-02-26T13:31:57;16.95;;;15.32;;
51214;SDS011;63849;47.546;19.254;2024-02-26T13:34:27;18.53;;;16.73;;
51214;SDS011;63849;47.546;19.254;2024-02-26T13:36:53;17.60;;;15.80;;
51214;SDS011;63849;47.546;19.254;2024-02-26T13:39:26;16.75;;;15.05;;
51214;SDS011;63849;47.546;19.254;2024-02-26T13:44:19;18.85;;;16.95;;
51214;SDS011;63849;47.546;19.254;2024-02-26T13:46:45;19.60;;;17.70;;
51214;SDS011;63849;47.546;19.254;2024-02-26T13:49:11;20.33;;;18.33;;
51214;SDS011;63849;47.546;19.254;2024-02-26T13:51:38;20.90;;;19.05;;
51214;SDS011;63849;47.546;19.254;2024-02-26T13:54:04;27.63;;;25.02;;
51214;SDS011;63849;47.546;19.254;2024-02-26T13:56:30;23.52;;;21.30;;
51214;SDS011;63849;47.546;19.254;2024-02-26T13:58:57;20.98;;;19.08;;
51214;SDS011;63849;47.546;19.254;2024-02-26T14:01:23;24.90;;;22.63;;
51214;SDS011;63849;47.546;19.254;2024-02-26T14:03:49;26.15;;;23.50;;
51214;SDS011;63849;47.546;19.254;2024-02-26T14:06:15;26.58;;;23.98;;
51214;SDS011;63849;47.546;19.254;2024-02-26T14:08:41;27.48;;;24.75;;
51214;SDS011;63849;47.546;19.254;2024-02-26T14:11:06;29.02;;;26.23;;
51214;SDS011;63849;47.546;19.254;2024-02-26T14:13:32;28.52;;;25.90;;
51214;SDS011;63849;47.546;19.254;2024-02-26T14:15:58;27.63;;;24.77;;